KJKJ

Moorhead Municipal Airport

Moorhead, Minnesota, USA
METAR KJKJ 110235Z AUTO 00000KT 10SM CLR M08/M09 A3000 RMK AO2
Observed Flight Rules
Dec-11 @ 02:35 UTC (9 minutes ago) Visual Flight Rules
Visibility Clouds
10 miles
  • Clear skies
Temperatures Readings
Current -8°C / 18°F
Dewpoint -9°C / 16°F
Humidity 93%
Altimeter 30" Hg
Pressure 1016 hPa
Elevation 280
METAR KJKJ 110235Z AUTO 00000KT 10SM CLR M08/M09 A3000 RMK AO2
Observed Flight Rules
Dec-11 @ 02:35 UTC
(9 minutes ago)
VFR
Clouds
  • Clear skies
Temperature Dewpoint
-8°C / 18°F -9°C / 16°F
Humidity Altimeter Pressure
93% 30" Hg 1016 hPa